Disclaimer

Please do not use the information listed here in-flight or in-navigation, as they are not provided to us by the airports but are provided by volunteers, so they might be outdated.

Search


Regions


Airport information page

No radio frequency information is available.

Airport informations:
Latitude: 32° 58' 51.77" N
Longitude: 035° 34' 18.87" E
Elevation: 922 feet - 281 meters
Operating hours: Remarks
Operating agency: Civil government, landing fees and diplomatic clearance may be required
Timezone: UTC+2(+3DT)
Fuel: Unknown fuel type or whether there is any fuel.

Runway information:
05/23 - 3190 x 100 feet< - >972 x 30 meters
15/33 - 3655 x 100 feet< - >1114 x 30 meters

Recent METARs:
LLIB 180650Z 12004KT 080V170 CAVOK 20/09 Q1022
LLIB 180650Z 12004KT 080V170 CAVOK 20/09 Q1022
LLIB 180750Z 13008KT CAVOK 20/08 Q1021

Airport on the map: